London Heathrow Airport

EGLL | LHR

London , England , United Kingdom

Sunday, August 18th, 2019 | 06:15

Weather

EGLL 180450Z AUTO 21005KT 9999 NCD 15/13 Q1003

Charts

1 Available

Gates

243 Available

Runways

2 Available

Events

No events for this airport


New event